sensor_id;sensor_type;location;lat;lon;timestamp;P1;durP1;ratioP1;P2;durP2;ratioP2
24901;SDS011;31328;51.402;0.016;2023-03-03T00:01:35;5.97;;;3.33;;
24901;SDS011;31328;51.402;0.016;2023-03-03T00:04:01;5.80;;;3.10;;
24901;SDS011;31328;51.402;0.016;2023-03-03T00:06:27;6.50;;;3.60;;
24901;SDS011;31328;51.402;0.016;2023-03-03T00:08:55;6.37;;;3.07;;
24901;SDS011;31328;51.402;0.016;2023-03-03T00:11:21;6.73;;;3.37;;
24901;SDS011;31328;51.402;0.016;2023-03-03T00:13:51;7.20;;;3.37;;
24901;SDS011;31328;51.402;0.016;2023-03-03T00:18:53;7.67;;;3.60;;
24901;SDS011;31328;51.402;0.016;2023-03-03T00:21:27;4.93;;;3.47;;
24901;SDS011;31328;51.402;0.016;2023-03-03T00:24:09;6.50;;;3.67;;
24901;SDS011;31328;51.402;0.016;2023-03-03T00:26:50;8.13;;;4.10;;
24901;SDS011;31328;51.402;0.016;2023-03-03T00:34:40;7.57;;;3.40;;
24901;SDS011;31328;51.402;0.016;2023-03-03T00:37:19;7.63;;;4.03;;
24901;SDS011;31328;51.402;0.016;2023-03-03T00:39:52;8.40;;;3.37;;
24901;SDS011;31328;51.402;0.016;2023-03-03T00:42:25;5.20;;;3.90;;
24901;SDS011;31328;51.402;0.016;2023-03-03T00:45:04;10.27;;;4.83;;
24901;SDS011;31328;51.402;0.016;2023-03-03T00:47:47;6.88;;;3.42;;
24901;SDS011;31328;51.402;0.016;2023-03-03T00:50:25;6.90;;;3.83;;
24901;SDS011;31328;51.402;0.016;2023-03-03T00:53:09;7.57;;;3.93;;
24901;SDS011;31328;51.402;0.016;2023-03-03T00:55:42;5.70;;;3.30;;
24901;SDS011;31328;51.402;0.016;2023-03-03T00:58:09;7.67;;;3.87;;
24901;SDS011;31328;51.402;0.016;2023-03-03T01:00:40;8.43;;;3.97;;
24901;SDS011;31328;51.402;0.016;2023-03-03T01:03:17;7.03;;;4.37;;
24901;SDS011;31328;51.402;0.016;2023-03-03T01:05:50;8.23;;;3.70;;
24901;SDS011;31328;51.402;0.016;2023-03-03T01:08:17;7.50;;;3.57;;
24901;SDS011;31328;51.402;0.016;2023-03-03T01:10:45;9.07;;;3.87;;
24901;SDS011;31328;51.402;0.016;2023-03-03T01:13:18;7.27;;;3.47;;
24901;SDS011;31328;51.402;0.016;2023-03-03T01:15:46;10.03;;;4.33;;
24901;SDS011;31328;51.402;0.016;2023-03-03T01:18:13;7.37;;;4.80;;
24901;SDS011;31328;51.402;0.016;2023-03-03T01:20:40;5.07;;;3.67;;
24901;SDS011;31328;51.402;0.016;2023-03-03T01:23:06;6.70;;;3.63;;
24901;SDS011;31328;51.402;0.016;2023-03-03T01:25:33;6.17;;;4.17;;
24901;SDS011;31328;51.402;0.016;2023-03-03T01:27:59;7.20;;;4.27;;
24901;SDS011;31328;51.402;0.016;2023-03-03T01:30:26;6.97;;;3.93;;
24901;SDS011;31328;51.402;0.016;2023-03-03T01:32:52;9.03;;;4.10;;
24901;SDS011;31328;51.402;0.016;2023-03-03T01:35:18;6.63;;;4.23;;
24901;SDS011;31328;51.402;0.016;2023-03-03T01:37:45;5.53;;;4.37;;
24901;SDS011;31328;51.402;0.016;2023-03-03T01:40:20;7.30;;;4.17;;
24901;SDS011;31328;51.402;0.016;2023-03-03T01:42:48;5.87;;;4.03;;
24901;SDS011;31328;51.402;0.016;2023-03-03T01:45:22;6.43;;;4.07;;
24901;SDS011;31328;51.402;0.016;2023-03-03T01:48:05;6.60;;;3.70;;
24901;SDS011;31328;51.402;0.016;2023-03-03T01:53:20;5.73;;;3.60;;
24901;SDS011;31328;51.402;0.016;2023-03-03T01:55:52;8.47;;;4.40;;
24901;SDS011;31328;51.402;0.016;2023-03-03T01:58:20;7.73;;;4.30;;
24901;SDS011;31328;51.402;0.016;2023-03-03T02:00:52;9.07;;;4.13;;
24901;SDS011;31328;51.402;0.016;2023-03-03T02:03:22;8.33;;;4.27;;
24901;SDS011;31328;51.402;0.016;2023-03-03T02:05:49;7.67;;;4.77;;
24901;SDS011;31328;51.402;0.016;2023-03-03T02:08:21;13.23;;;4.90;;
24901;SDS011;31328;51.402;0.016;2023-03-03T02:10:53;7.17;;;4.80;;
24901;SDS011;31328;51.402;0.016;2023-03-03T02:13:20;7.10;;;4.13;;
24901;SDS011;31328;51.402;0.016;2023-03-03T02:15:47;8.63;;;4.23;;
24901;SDS011;31328;51.402;0.016;2023-03-03T02:18:14;9.47;;;4.83;;
24901;SDS011;31328;51.402;0.016;2023-03-03T02:20:45;6.63;;;4.07;;
24901;SDS011;31328;51.402;0.016;2023-03-03T02:24:07;8.70;;;4.20;;
24901;SDS011;31328;51.402;0.016;2023-03-03T02:26:12;8.93;;;4.13;;
24901;SDS011;31328;51.402;0.016;2023-03-03T02:28:44;8.27;;;4.20;;
24901;SDS011;31328;51.402;0.016;2023-03-03T02:31:12;6.07;;;3.83;;
24901;SDS011;31328;51.402;0.016;2023-03-03T02:33:42;8.07;;;4.93;;
24901;SDS011;31328;51.402;0.016;2023-03-03T02:36:14;8.93;;;4.70;;
24901;SDS011;31328;51.402;0.016;2023-03-03T02:41:16;7.63;;;4.30;;
24901;SDS011;31328;51.402;0.016;2023-03-03T02:44:01;8.03;;;4.43;;
24901;SDS011;31328;51.402;0.016;2023-03-03T02:46:37;8.33;;;4.90;;
24901;SDS011;31328;51.402;0.016;2023-03-03T02:49:05;9.40;;;5.43;;
24901;SDS011;31328;51.402;0.016;2023-03-03T02:51:33;8.80;;;4.90;;
24901;SDS011;31328;51.402;0.016;2023-03-03T02:54:00;9.77;;;4.77;;
24901;SDS011;31328;51.402;0.016;2023-03-03T02:56:29;7.67;;;4.47;;
24901;SDS011;31328;51.402;0.016;2023-03-03T02:58:56;9.70;;;4.87;;
24901;SDS011;31328;51.402;0.016;2023-03-03T03:01:23;8.63;;;5.33;;
24901;SDS011;31328;51.402;0.016;2023-03-03T03:03:51;11.10;;;4.90;;
24901;SDS011;31328;51.402;0.016;2023-03-03T03:06:20;7.43;;;4.80;;
24901;SDS011;31328;51.402;0.016;2023-03-03T03:08:47;10.40;;;6.00;;
24901;SDS011;31328;51.402;0.016;2023-03-03T03:11:13;7.80;;;5.63;;
24901;SDS011;31328;51.402;0.016;2023-03-03T03:13:40;8.40;;;4.70;;
24901;SDS011;31328;51.402;0.016;2023-03-03T03:16:06;7.73;;;5.30;;
24901;SDS011;31328;51.402;0.016;2023-03-03T03:18:33;9.67;;;5.03;;
24901;SDS011;31328;51.402;0.016;2023-03-03T03:21:10;7.70;;;4.80;;
24901;SDS011;31328;51.402;0.016;2023-03-03T03:23:39;8.10;;;5.03;;
24901;SDS011;31328;51.402;0.016;2023-03-03T03:26:06;9.53;;;5.80;;
24901;SDS011;31328;51.402;0.016;2023-03-03T03:28:33;11.80;;;5.30;;
24901;SDS011;31328;51.402;0.016;2023-03-03T03:31:01;9.10;;;5.30;;
24901;SDS011;31328;51.402;0.016;2023-03-03T03:33:30;13.77;;;6.07;;
24901;SDS011;31328;51.402;0.016;2023-03-03T03:35:58;11.97;;;5.53;;
24901;SDS011;31328;51.402;0.016;2023-03-03T03:38:24;10.00;;;5.60;;
24901;SDS011;31328;51.402;0.016;2023-03-03T03:40:52;8.30;;;5.07;;
24901;SDS011;31328;51.402;0.016;2023-03-03T03:43:19;9.13;;;5.27;;
24901;SDS011;31328;51.402;0.016;2023-03-03T03:45:46;10.73;;;5.33;;
24901;SDS011;31328;51.402;0.016;2023-03-03T03:48:13;10.87;;;5.73;;
24901;SDS011;31328;51.402;0.016;2023-03-03T03:50:42;8.13;;;5.30;;
24901;SDS011;31328;51.402;0.016;2023-03-03T03:53:09;6.70;;;5.13;;
24901;SDS011;31328;51.402;0.016;2023-03-03T03:55:35;9.60;;;4.80;;
24901;SDS011;31328;51.402;0.016;2023-03-03T03:58:02;9.57;;;5.47;;
24901;SDS011;31328;51.402;0.016;2023-03-03T04:00:29;7.87;;;5.00;;
24901;SDS011;31328;51.402;0.016;2023-03-03T04:02:58;9.03;;;4.90;;
24901;SDS011;31328;51.402;0.016;2023-03-03T04:05:25;8.40;;;4.90;;
24901;SDS011;31328;51.402;0.016;2023-03-03T04:07:52;9.27;;;5.03;;
24901;SDS011;31328;51.402;0.016;2023-03-03T04:10:19;7.03;;;4.30;;
24901;SDS011;31328;51.402;0.016;2023-03-03T04:12:46;7.80;;;4.57;;
24901;SDS011;31328;51.402;0.016;2023-03-03T04:15:13;7.97;;;4.80;;
24901;SDS011;31328;51.402;0.016;2023-03-03T04:17:41;6.27;;;4.07;;
24901;SDS011;31328;51.402;0.016;2023-03-03T04:20:08;7.23;;;4.23;;
24901;SDS011;31328;51.402;0.016;2023-03-03T04:22:38;8.97;;;4.60;;
24901;SDS011;31328;51.402;0.016;2023-03-03T04:25:05;7.90;;;4.70;;
24901;SDS011;31328;51.402;0.016;2023-03-03T04:27:37;6.77;;;4.13;;
24901;SDS011;31328;51.402;0.016;2023-03-03T04:30:04;8.63;;;4.27;;
24901;SDS011;31328;51.402;0.016;2023-03-03T04:32:32;8.17;;;4.30;;
24901;SDS011;31328;51.402;0.016;2023-03-03T04:35:01;8.53;;;4.23;;
24901;SDS011;31328;51.402;0.016;2023-03-03T04:37:28;7.60;;;4.07;;
24901;SDS011;31328;51.402;0.016;2023-03-03T04:39:55;8.67;;;4.73;;
24901;SDS011;31328;51.402;0.016;2023-03-03T04:42:22;6.07;;;4.20;;
24901;SDS011;31328;51.402;0.016;2023-03-03T04:44:48;9.37;;;4.70;;
24901;SDS011;31328;51.402;0.016;2023-03-03T04:47:15;8.30;;;4.73;;
24901;SDS011;31328;51.402;0.016;2023-03-03T04:49:41;7.77;;;4.40;;
24901;SDS011;31328;51.402;0.016;2023-03-03T04:52:08;5.70;;;3.93;;
24901;SDS011;31328;51.402;0.016;2023-03-03T04:54:36;10.97;;;4.47;;
24901;SDS011;31328;51.402;0.016;2023-03-03T04:57:03;7.13;;;3.90;;
24901;SDS011;31328;51.402;0.016;2023-03-03T04:59:29;9.83;;;3.93;;
24901;SDS011;31328;51.402;0.016;2023-03-03T05:01:56;7.27;;;3.67;;
24901;SDS011;31328;51.402;0.016;2023-03-03T05:04:23;5.60;;;3.40;;
24901;SDS011;31328;51.402;0.016;2023-03-03T05:06:49;5.20;;;3.30;;
24901;SDS011;31328;51.402;0.016;2023-03-03T05:09:15;5.83;;;3.37;;
24901;SDS011;31328;51.402;0.016;2023-03-03T05:11:41;6.50;;;4.07;;
24901;SDS011;31328;51.402;0.016;2023-03-03T05:14:08;5.77;;;3.37;;
24901;SDS011;31328;51.402;0.016;2023-03-03T05:16:34;7.13;;;3.60;;
24901;SDS011;31328;51.402;0.016;2023-03-03T05:19:00;5.17;;;3.90;;
24901;SDS011;31328;51.402;0.016;2023-03-03T05:21:26;6.07;;;4.07;;
24901;SDS011;31328;51.402;0.016;2023-03-03T05:23:53;5.80;;;2.87;;
24901;SDS011;31328;51.402;0.016;2023-03-03T05:26:19;5.73;;;3.20;;
24901;SDS011;31328;51.402;0.016;2023-03-03T05:28:45;6.13;;;3.80;;
24901;SDS011;31328;51.402;0.016;2023-03-03T05:31:12;7.23;;;3.20;;
24901;SDS011;31328;51.402;0.016;2023-03-03T05:33:38;5.67;;;3.10;;
24901;SDS011;31328;51.402;0.016;2023-03-03T05:36:04;9.87;;;3.70;;
24901;SDS011;31328;51.402;0.016;2023-03-03T05:38:31;6.13;;;3.03;;
24901;SDS011;31328;51.402;0.016;2023-03-03T05:40:57;9.30;;;3.93;;
24901;SDS011;31328;51.402;0.016;2023-03-03T05:43:24;4.63;;;2.83;;
24901;SDS011;31328;51.402;0.016;2023-03-03T05:45:57;4.90;;;2.90;;
24901;SDS011;31328;51.402;0.016;2023-03-03T05:48:23;5.60;;;2.97;;
24901;SDS011;31328;51.402;0.016;2023-03-03T05:50:50;6.13;;;2.90;;
24901;SDS011;31328;51.402;0.016;2023-03-03T05:53:17;4.80;;;2.83;;
24901;SDS011;31328;51.402;0.016;2023-03-03T05:55:43;4.77;;;3.10;;
24901;SDS011;31328;51.402;0.016;2023-03-03T05:58:09;5.53;;;3.07;;
24901;SDS011;31328;51.402;0.016;2023-03-03T06:00:36;6.10;;;3.73;;
24901;SDS011;31328;51.402;0.016;2023-03-03T06:03:03;4.90;;;2.70;;
24901;SDS011;31328;51.402;0.016;2023-03-03T06:05:29;5.03;;;3.40;;
24901;SDS011;31328;51.402;0.016;2023-03-03T06:07:55;5.23;;;2.97;;
24901;SDS011;31328;51.402;0.016;2023-03-03T06:10:22;6.50;;;3.10;;
24901;SDS011;31328;51.402;0.016;2023-03-03T06:12:52;5.60;;;2.73;;
24901;SDS011;31328;51.402;0.016;2023-03-03T06:15:20;5.33;;;3.30;;
24901;SDS011;31328;51.402;0.016;2023-03-03T06:17:47;6.93;;;3.23;;
24901;SDS011;31328;51.402;0.016;2023-03-03T06:20:14;5.17;;;3.20;;
24901;SDS011;31328;51.402;0.016;2023-03-03T06:22:40;3.83;;;2.87;;
24901;SDS011;31328;51.402;0.016;2023-03-03T06:25:07;7.77;;;4.17;;
24901;SDS011;31328;51.402;0.016;2023-03-03T06:27:33;4.23;;;2.77;;
24901;SDS011;31328;51.402;0.016;2023-03-03T06:30:00;5.73;;;2.80;;
24901;SDS011;31328;51.402;0.016;2023-03-03T06:32:26;4.60;;;2.40;;
24901;SDS011;31328;51.402;0.016;2023-03-03T06:34:52;4.90;;;2.57;;
24901;SDS011;31328;51.402;0.016;2023-03-03T06:37:19;4.33;;;2.80;;
24901;SDS011;31328;51.402;0.016;2023-03-03T06:39:45;3.63;;;2.67;;
24901;SDS011;31328;51.402;0.016;2023-03-03T06:42:11;5.57;;;3.60;;
24901;SDS011;31328;51.402;0.016;2023-03-03T06:44:38;5.47;;;3.60;;
24901;SDS011;31328;51.402;0.016;2023-03-03T06:47:04;4.23;;;2.23;;
24901;SDS011;31328;51.402;0.016;2023-03-03T06:49:30;6.50;;;3.30;;
24901;SDS011;31328;51.402;0.016;2023-03-03T06:51:58;6.60;;;3.30;;
24901;SDS011;31328;51.402;0.016;2023-03-03T06:54:27;9.20;;;3.13;;
24901;SDS011;31328;51.402;0.016;2023-03-03T06:56:56;5.00;;;2.83;;
24901;SDS011;31328;51.402;0.016;2023-03-03T06:59:25;4.87;;;2.70;;
24901;SDS011;31328;51.402;0.016;2023-03-03T07:01:52;4.30;;;3.00;;
24901;SDS011;31328;51.402;0.016;2023-03-03T07:04:31;4.70;;;3.20;;
24901;SDS011;31328;51.402;0.016;2023-03-03T07:06:59;3.40;;;2.27;;
24901;SDS011;31328;51.402;0.016;2023-03-03T07:09:36;5.57;;;2.87;;
24901;SDS011;31328;51.402;0.016;2023-03-03T07:12:08;5.37;;;2.93;;
24901;SDS011;31328;51.402;0.016;2023-03-03T07:14:40;3.70;;;2.50;;
24901;SDS011;31328;51.402;0.016;2023-03-03T07:17:13;6.20;;;2.83;;
24901;SDS011;31328;51.402;0.016;2023-03-03T07:19:42;6.67;;;3.07;;
24901;SDS011;31328;51.402;0.016;2023-03-03T07:24:49;6.13;;;3.57;;
24901;SDS011;31328;51.402;0.016;2023-03-03T07:27:21;5.13;;;3.50;;
24901;SDS011;31328;51.402;0.016;2023-03-03T07:29:53;4.35;;;2.97;;
24901;SDS011;31328;51.402;0.016;2023-03-03T07:34:53;6.60;;;2.73;;
24901;SDS011;31328;51.402;0.016;2023-03-03T07:37:30;5.37;;;3.07;;
24901;SDS011;31328;51.402;0.016;2023-03-03T07:40:23;7.07;;;2.87;;
24901;SDS011;31328;51.402;0.016;2023-03-03T07:42:52;6.07;;;3.03;;
24901;SDS011;31328;51.402;0.016;2023-03-03T07:45:28;6.53;;;3.00;;
24901;SDS011;31328;51.402;0.016;2023-03-03T07:50:40;6.77;;;3.20;;
24901;SDS011;31328;51.402;0.016;2023-03-03T07:53:40;7.17;;;3.30;;
24901;SDS011;31328;51.402;0.016;2023-03-03T07:56:01;5.57;;;2.77;;
24901;SDS011;31328;51.402;0.016;2023-03-03T08:04:15;6.83;;;3.10;;
24901;SDS011;31328;51.402;0.016;2023-03-03T08:06:46;6.53;;;3.33;;
24901;SDS011;31328;51.402;0.016;2023-03-03T08:14:29;6.67;;;3.30;;
24901;SDS011;31328;51.402;0.016;2023-03-03T08:16:58;6.67;;;3.20;;
24901;SDS011;31328;51.402;0.016;2023-03-03T08:19:26;7.47;;;3.30;;
24901;SDS011;31328;51.402;0.016;2023-03-03T08:21:58;7.03;;;3.67;;
24901;SDS011;31328;51.402;0.016;2023-03-03T08:24:34;9.17;;;4.17;;
24901;SDS011;31328;51.402;0.016;2023-03-03T08:27:00;5.37;;;3.97;;
24901;SDS011;31328;51.402;0.016;2023-03-03T08:29:26;8.10;;;3.80;;
24901;SDS011;31328;51.402;0.016;2023-03-03T08:31:53;8.73;;;4.43;;
24901;SDS011;31328;51.402;0.016;2023-03-03T08:34:19;6.67;;;4.20;;
24901;SDS011;31328;51.402;0.016;2023-03-03T08:36:45;6.53;;;3.80;;
24901;SDS011;31328;51.402;0.016;2023-03-03T08:39:12;8.00;;;3.50;;
24901;SDS011;31328;51.402;0.016;2023-03-03T08:41:38;6.17;;;3.37;;
24901;SDS011;31328;51.402;0.016;2023-03-03T08:44:08;6.77;;;3.53;;
24901;SDS011;31328;51.402;0.016;2023-03-03T08:46:35;7.57;;;3.60;;
24901;SDS011;31328;51.402;0.016;2023-03-03T08:49:02;6.80;;;3.67;;
24901;SDS011;31328;51.402;0.016;2023-03-03T08:51:29;7.37;;;4.57;;
24901;SDS011;31328;51.402;0.016;2023-03-03T08:53:55;6.57;;;3.27;;
24901;SDS011;31328;51.402;0.016;2023-03-03T08:56:22;6.83;;;4.07;;
24901;SDS011;31328;51.402;0.016;2023-03-03T08:58:49;7.60;;;3.47;;
24901;SDS011;31328;51.402;0.016;2023-03-03T09:01:16;5.80;;;3.13;;
24901;SDS011;31328;51.402;0.016;2023-03-03T09:03:42;5.47;;;3.70;;
24901;SDS011;31328;51.402;0.016;2023-03-03T09:06:09;5.20;;;3.20;;
24901;SDS011;31328;51.402;0.016;2023-03-03T09:08:36;6.20;;;3.33;;
24901;SDS011;31328;51.402;0.016;2023-03-03T09:11:08;5.10;;;3.90;;
24901;SDS011;31328;51.402;0.016;2023-03-03T09:13:38;6.60;;;3.90;;
24901;SDS011;31328;51.402;0.016;2023-03-03T09:16:14;4.60;;;2.87;;
24901;SDS011;31328;51.402;0.016;2023-03-03T09:18:41;8.13;;;3.80;;
24901;SDS011;31328;51.402;0.016;2023-03-03T09:21:20;5.30;;;3.10;;
24901;SDS011;31328;51.402;0.016;2023-03-03T09:23:51;5.23;;;3.27;;
24901;SDS011;31328;51.402;0.016;2023-03-03T09:26:21;7.20;;;2.60;;
24901;SDS011;31328;51.402;0.016;2023-03-03T09:28:55;5.00;;;3.23;;
24901;SDS011;31328;51.402;0.016;2023-03-03T09:31:30;4.90;;;3.37;;
24901;SDS011;31328;51.402;0.016;2023-03-03T09:34:19;6.40;;;2.90;;
24901;SDS011;31328;51.402;0.016;2023-03-03T09:39:49;7.27;;;2.90;;
24901;SDS011;31328;51.402;0.016;2023-03-03T09:45:26;4.27;;;2.33;;
24901;SDS011;31328;51.402;0.016;2023-03-03T10:12:26;7.10;;;3.60;;
24901;SDS011;31328;51.402;0.016;2023-03-03T10:22:44;5.50;;;3.23;;
24901;SDS011;31328;51.402;0.016;2023-03-03T10:52:37;3.43;;;2.10;;
24901;SDS011;31328;51.402;0.016;2023-03-03T11:00:32;3.63;;;2.13;;
24901;SDS011;31328;51.402;0.016;2023-03-03T11:03:45;5.37;;;1.83;;
24901;SDS011;31328;51.402;0.016;2023-03-03T11:08:55;4.20;;;1.93;;
24901;SDS011;31328;51.402;0.016;2023-03-03T11:33:01;2.70;;;1.30;;
24901;SDS011;31328;51.402;0.016;2023-03-03T11:38:23;3.10;;;1.67;;
24901;SDS011;31328;51.402;0.016;2023-03-03T11:40:52;3.80;;;1.90;;
24901;SDS011;31328;51.402;0.016;2023-03-03T11:43:26;3.10;;;1.30;;
24901;SDS011;31328;51.402;0.016;2023-03-03T11:46:06;3.30;;;1.40;;
24901;SDS011;31328;51.402;0.016;2023-03-03T11:59:15;3.80;;;1.33;;
24901;SDS011;31328;51.402;0.016;2023-03-03T12:04:33;1.87;;;1.23;;
24901;SDS011;31328;51.402;0.016;2023-03-03T12:07:21;3.13;;;1.57;;
24901;SDS011;31328;51.402;0.016;2023-03-03T12:10:47;5.17;;;2.03;;
24901;SDS011;31328;51.402;0.016;2023-03-03T12:13:13;3.93;;;1.33;;
24901;SDS011;31328;51.402;0.016;2023-03-03T12:16:15;3.87;;;1.20;;
24901;SDS011;31328;51.402;0.016;2023-03-03T12:21:45;1.30;;;1.00;;
24901;SDS011;31328;51.402;0.016;2023-03-03T12:24:26;3.03;;;1.13;;
24901;SDS011;31328;51.402;0.016;2023-03-03T12:35:38;4.23;;;1.20;;
24901;SDS011;31328;51.402;0.016;2023-03-03T12:49:49;3.13;;;0.93;;
24901;SDS011;31328;51.402;0.016;2023-03-03T12:55:48;1.60;;;1.00;;
24901;SDS011;31328;51.402;0.016;2023-03-03T13:01:26;1.33;;;0.70;;
24901;SDS011;31328;51.402;0.016;2023-03-03T13:07:33;1.33;;;0.60;;
24901;SDS011;31328;51.402;0.016;2023-03-03T13:15:11;1.70;;;0.50;;
24901;SDS011;31328;51.402;0.016;2023-03-03T13:20:34;1.50;;;1.03;;
24901;SDS011;31328;51.402;0.016;2023-03-03T13:23:12;2.03;;;0.70;;
24901;SDS011;31328;51.402;0.016;2023-03-03T13:28:32;2.70;;;1.03;;
24901;SDS011;31328;51.402;0.016;2023-03-03T13:33:35;1.17;;;0.60;;
24901;SDS011;31328;51.402;0.016;2023-03-03T13:36:04;2.23;;;0.60;;
24901;SDS011;31328;51.402;0.016;2023-03-03T13:38:35;0.90;;;0.60;;
24901;SDS011;31328;51.402;0.016;2023-03-03T13:46:58;2.07;;;0.77;;
24901;SDS011;31328;51.402;0.016;2023-03-03T13:52:19;1.77;;;1.00;;
24901;SDS011;31328;51.402;0.016;2023-03-03T13:57:58;2.50;;;1.63;;
24901;SDS011;31328;51.402;0.016;2023-03-03T14:00:53;2.53;;;1.30;;
24901;SDS011;31328;51.402;0.016;2023-03-03T14:03:34;1.70;;;0.90;;
24901;SDS011;31328;51.402;0.016;2023-03-03T14:06:27;3.07;;;1.30;;
24901;SDS011;31328;51.402;0.016;2023-03-03T14:09:07;2.13;;;1.00;;
24901;SDS011;31328;51.402;0.016;2023-03-03T14:11:56;2.40;;;1.20;;
24901;SDS011;31328;51.402;0.016;2023-03-03T14:14:45;3.57;;;1.20;;
24901;SDS011;31328;51.402;0.016;2023-03-03T14:23:01;1.50;;;1.03;;
24901;SDS011;31328;51.402;0.016;2023-03-03T14:28:19;1.67;;;0.83;;
24901;SDS011;31328;51.402;0.016;2023-03-03T14:30:52;1.30;;;0.83;;
24901;SDS011;31328;51.402;0.016;2023-03-03T14:33:21;1.30;;;0.70;;
24901;SDS011;31328;51.402;0.016;2023-03-03T14:38:35;1.73;;;0.83;;
24901;SDS011;31328;51.402;0.016;2023-03-03T14:43:40;2.20;;;0.80;;
24901;SDS011;31328;51.402;0.016;2023-03-03T14:48:52;1.47;;;0.77;;
24901;SDS011;31328;51.402;0.016;2023-03-03T14:54:26;1.40;;;0.97;;
24901;SDS011;31328;51.402;0.016;2023-03-03T14:59:24;2.60;;;1.07;;
24901;SDS011;31328;51.402;0.016;2023-03-03T15:04:42;1.30;;;0.73;;
24901;SDS011;31328;51.402;0.016;2023-03-03T15:10:09;2.23;;;0.93;;
24901;SDS011;31328;51.402;0.016;2023-03-03T15:12:38;1.90;;;0.90;;
24901;SDS011;31328;51.402;0.016;2023-03-03T15:15:16;0.90;;;0.80;;
24901;SDS011;31328;51.402;0.016;2023-03-03T15:20:23;2.70;;;0.90;;
24901;SDS011;31328;51.402;0.016;2023-03-03T15:25:51;0.98;;;0.70;;
24901;SDS011;31328;51.402;0.016;2023-03-03T15:28:40;1.93;;;1.17;;
24901;SDS011;31328;51.402;0.016;2023-03-03T15:34:05;0.80;;;0.73;;
24901;SDS011;31328;51.402;0.016;2023-03-03T15:42:26;1.50;;;0.63;;
24901;SDS011;31328;51.402;0.016;2023-03-03T16:03:43;0.57;;;0.50;;
24901;SDS011;31328;51.402;0.016;2023-03-03T16:06:29;1.23;;;0.53;;
24901;SDS011;31328;51.402;0.016;2023-03-03T16:14:57;0.90;;;0.50;;
24901;SDS011;31328;51.402;0.016;2023-03-03T16:20:28;1.13;;;0.53;;
24901;SDS011;31328;51.402;0.016;2023-03-03T16:26:09;1.27;;;0.60;;
24901;SDS011;31328;51.402;0.016;2023-03-03T16:29:14;0.57;;;0.50;;
24901;SDS011;31328;51.402;0.016;2023-03-03T16:38:00;1.48;;;0.80;;
24901;SDS011;31328;51.402;0.016;2023-03-03T16:40:37;0.50;;;0.40;;
24901;SDS011;31328;51.402;0.016;2023-03-03T16:43:21;1.13;;;0.43;;
24901;SDS011;31328;51.402;0.016;2023-03-03T16:45:55;1.00;;;0.90;;
24901;SDS011;31328;51.402;0.016;2023-03-03T16:48:52;0.93;;;0.63;;
24901;SDS011;31328;51.402;0.016;2023-03-03T16:51:48;2.20;;;1.27;;
24901;SDS011;31328;51.402;0.016;2023-03-03T17:00:07;1.05;;;0.80;;
24901;SDS011;31328;51.402;0.016;2023-03-03T17:10:41;1.97;;;1.00;;
24901;SDS011;31328;51.402;0.016;2023-03-03T17:16:17;2.63;;;1.00;;
24901;SDS011;31328;51.402;0.016;2023-03-03T17:19:11;3.20;;;1.08;;
24901;SDS011;31328;51.402;0.016;2023-03-03T17:27:33;2.70;;;0.63;;
24901;SDS011;31328;51.402;0.016;2023-03-03T17:51:40;1.37;;;0.80;;
24901;SDS011;31328;51.402;0.016;2023-03-03T17:57:23;2.53;;;1.80;;
24901;SDS011;31328;51.402;0.016;2023-03-03T18:17:32;3.20;;;1.53;;
24901;SDS011;31328;51.402;0.016;2023-03-03T18:23:45;1.50;;;0.90;;
24901;SDS011;31328;51.402;0.016;2023-03-03T18:29:43;2.43;;;1.30;;
24901;SDS011;31328;51.402;0.016;2023-03-03T18:42:31;1.57;;;1.20;;
24901;SDS011;31328;51.402;0.016;2023-03-03T18:53:46;3.17;;;1.40;;
24901;SDS011;31328;51.402;0.016;2023-03-03T18:55:58;3.83;;;1.40;;
24901;SDS011;31328;51.402;0.016;2023-03-03T18:58:27;2.97;;;1.48;;
24901;SDS011;31328;51.402;0.016;2023-03-03T19:03:36;2.57;;;1.60;;
24901;SDS011;31328;51.402;0.016;2023-03-03T19:06:28;4.13;;;2.00;;
24901;SDS011;31328;51.402;0.016;2023-03-03T19:08:57;4.00;;;2.07;;
24901;SDS011;31328;51.402;0.016;2023-03-03T19:11:57;3.10;;;1.90;;
24901;SDS011;31328;51.402;0.016;2023-03-03T19:14:28;6.68;;;2.10;;
24901;SDS011;31328;51.402;0.016;2023-03-03T19:17:40;5.07;;;2.40;;
24901;SDS011;31328;51.402;0.016;2023-03-03T19:22:50;4.05;;;2.08;;
24901;SDS011;31328;51.402;0.016;2023-03-03T19:25:26;4.60;;;3.30;;
24901;SDS011;31328;51.402;0.016;2023-03-03T19:40:21;6.53;;;4.83;;
24901;SDS011;31328;51.402;0.016;2023-03-03T19:43:00;5.57;;;4.25;;
24901;SDS011;31328;51.402;0.016;2023-03-03T19:56:18;5.10;;;2.70;;
24901;SDS011;31328;51.402;0.016;2023-03-03T19:59:12;5.00;;;2.80;;
24901;SDS011;31328;51.402;0.016;2023-03-03T20:07:32;4.97;;;2.77;;
24901;SDS011;31328;51.402;0.016;2023-03-03T20:10:27;4.27;;;2.13;;
24901;SDS011;31328;51.402;0.016;2023-03-03T20:15:43;5.27;;;2.50;;
24901;SDS011;31328;51.402;0.016;2023-03-03T20:23:59;5.80;;;1.87;;
24901;SDS011;31328;51.402;0.016;2023-03-03T20:37:45;4.00;;;1.70;;
24901;SDS011;31328;51.402;0.016;2023-03-03T20:46:20;10.80;;;7.27;;
24901;SDS011;31328;51.402;0.016;2023-03-03T20:56:51;14.93;;;3.33;;
24901;SDS011;31328;51.402;0.016;2023-03-03T21:02:07;11.30;;;2.27;;
24901;SDS011;31328;51.402;0.016;2023-03-03T21:04:40;3.47;;;1.33;;
24901;SDS011;31328;51.402;0.016;2023-03-03T21:07:06;6.30;;;1.37;;
24901;SDS011;31328;51.402;0.016;2023-03-03T21:09:33;3.87;;;1.57;;
24901;SDS011;31328;51.402;0.016;2023-03-03T21:15:01;3.57;;;1.40;;
24901;SDS011;31328;51.402;0.016;2023-03-03T21:17:47;10.80;;;2.00;;
24901;SDS011;31328;51.402;0.016;2023-03-03T21:20:18;3.70;;;1.10;;
24901;SDS011;31328;51.402;0.016;2023-03-03T21:22:48;7.53;;;1.47;;
24901;SDS011;31328;51.402;0.016;2023-03-03T21:28:26;11.07;;;1.73;;
24901;SDS011;31328;51.402;0.016;2023-03-03T21:31:13;4.60;;;1.40;;
24901;SDS011;31328;51.402;0.016;2023-03-03T21:33:51;5.07;;;1.77;;
24901;SDS011;31328;51.402;0.016;2023-03-03T21:36:54;9.03;;;1.53;;
24901;SDS011;31328;51.402;0.016;2023-03-03T21:41:49;8.60;;;2.13;;
24901;SDS011;31328;51.402;0.016;2023-03-03T21:47:00;7.13;;;1.48;;
24901;SDS011;31328;51.402;0.016;2023-03-03T21:49:27;7.83;;;1.60;;
24901;SDS011;31328;51.402;0.016;2023-03-03T21:51:54;4.93;;;1.47;;
24901;SDS011;31328;51.402;0.016;2023-03-03T21:54:21;3.43;;;1.20;;
24901;SDS011;31328;51.402;0.016;2023-03-03T21:56:48;8.77;;;2.00;;
24901;SDS011;31328;51.402;0.016;2023-03-03T21:59:16;6.00;;;1.67;;
24901;SDS011;31328;51.402;0.016;2023-03-03T22:01:42;5.67;;;1.47;;
24901;SDS011;31328;51.402;0.016;2023-03-03T22:04:09;9.97;;;2.10;;
24901;SDS011;31328;51.402;0.016;2023-03-03T22:06:35;8.70;;;2.27;;
24901;SDS011;31328;51.402;0.016;2023-03-03T22:09:02;9.53;;;2.70;;
24901;SDS011;31328;51.402;0.016;2023-03-03T22:11:29;5.97;;;1.90;;
24901;SDS011;31328;51.402;0.016;2023-03-03T22:13:56;7.40;;;2.73;;
24901;SDS011;31328;51.402;0.016;2023-03-03T22:16:22;8.37;;;1.77;;
24901;SDS011;31328;51.402;0.016;2023-03-03T22:18:48;9.23;;;2.97;;
24901;SDS011;31328;51.402;0.016;2023-03-03T22:21:15;7.93;;;2.17;;
24901;SDS011;31328;51.402;0.016;2023-03-03T22:23:41;12.23;;;2.10;;
24901;SDS011;31328;51.402;0.016;2023-03-03T22:26:07;7.80;;;2.17;;
24901;SDS011;31328;51.402;0.016;2023-03-03T22:28:34;6.63;;;1.83;;
24901;SDS011;31328;51.402;0.016;2023-03-03T22:31:00;6.30;;;1.93;;
24901;SDS011;31328;51.402;0.016;2023-03-03T22:33:26;6.07;;;2.43;;
24901;SDS011;31328;51.402;0.016;2023-03-03T22:35:53;6.23;;;2.67;;
24901;SDS011;31328;51.402;0.016;2023-03-03T22:38:19;6.77;;;1.40;;
24901;SDS011;31328;51.402;0.016;2023-03-03T22:40:45;7.17;;;2.00;;
24901;SDS011;31328;51.402;0.016;2023-03-03T22:43:12;6.93;;;1.40;;
24901;SDS011;31328;51.402;0.016;2023-03-03T22:45:39;5.10;;;1.43;;
24901;SDS011;31328;51.402;0.016;2023-03-03T22:48:05;9.57;;;1.77;;